createdAt,value
2017-08-25T00:01:28.924Z,86.70
2017-08-25T00:03:56.460Z,86.60
2017-08-25T00:06:23.991Z,86.00
2017-08-25T00:08:51.568Z,86.10
2017-08-25T00:11:20.089Z,85.90
2017-08-25T00:13:47.688Z,85.70
2017-08-25T00:16:15.219Z,85.40
2017-08-25T00:18:42.764Z,85.70
2017-08-25T00:21:10.289Z,85.90
2017-08-25T00:23:37.829Z,85.80
2017-08-25T00:26:05.338Z,86.10
2017-08-25T00:28:32.869Z,86.10
2017-08-25T00:31:00.375Z,86.20
2017-08-25T00:33:27.906Z,86.30
2017-08-25T00:35:55.427Z,86.40
2017-08-25T00:38:22.963Z,86.50
2017-08-25T00:40:50.489Z,86.50
2017-08-25T00:43:18.594Z,86.70
2017-08-25T00:45:46.106Z,86.90
2017-08-25T00:48:13.650Z,87.10
2017-08-25T00:50:41.158Z,86.60
2017-08-25T00:53:08.700Z,86.70
2017-08-25T00:55:36.215Z,86.80
2017-08-25T00:58:04.849Z,86.80
2017-08-25T01:00:32.395Z,87.20
2017-08-25T01:02:59.938Z,87.40
2017-08-25T01:05:27.504Z,87.50
2017-08-25T01:07:55.026Z,87.70
2017-08-25T01:10:22.567Z,87.80
2017-08-25T01:12:50.087Z,88.10
2017-08-25T01:15:18.367Z,87.60
2017-08-25T01:17:45.882Z,87.50
2017-08-25T01:20:13.413Z,87.40
2017-08-25T01:22:40.924Z,87.30
2017-08-25T01:25:08.451Z,87.50
2017-08-25T01:27:35.969Z,87.80
2017-08-25T01:30:03.511Z,88.00
2017-08-25T01:32:31.037Z,87.90
2017-08-25T01:34:58.575Z,88.00
2017-08-25T01:37:26.074Z,88.00
2017-08-25T01:39:53.628Z,88.20
2017-08-25T01:42:21.142Z,87.80
2017-08-25T01:44:49.904Z,87.70
2017-08-25T01:47:17.892Z,87.70
2017-08-25T01:49:45.420Z,87.70
2017-08-25T01:52:12.943Z,87.80
2017-08-25T01:54:40.493Z,88.50
2017-08-25T01:57:08.021Z,88.80
2017-08-25T01:59:35.551Z,88.70
2017-08-25T02:02:03.061Z,88.80
2017-08-25T02:04:30.581Z,88.80
2017-08-25T02:06:58.103Z,89.10
2017-08-25T02:09:25.641Z,89.00
2017-08-25T02:11:53.153Z,89.00
2017-08-25T02:14:21.025Z,89.10
2017-08-25T02:16:49.572Z,89.20
2017-08-25T02:19:18.213Z,89.40
2017-08-25T02:21:54.258Z,88.70
2017-08-25T02:24:21.804Z,88.30
2017-08-25T02:26:49.323Z,88.40
2017-08-25T02:29:16.875Z,88.60
2017-08-25T02:31:44.395Z,88.40
2017-08-25T02:34:11.948Z,89.00
2017-08-25T02:36:39.483Z,89.20
2017-08-25T02:39:07.001Z,89.00
2017-08-25T02:41:34.527Z,88.90
2017-08-25T02:44:02.093Z,88.70
2017-08-25T02:46:29.602Z,89.00
2017-08-25T02:48:57.132Z,88.70
2017-08-25T02:51:24.684Z,88.60
2017-08-25T02:53:52.191Z,88.60
2017-08-25T02:56:19.734Z,89.00
2017-08-25T02:58:47.986Z,89.10
2017-08-25T03:01:15.542Z,89.50
2017-08-25T03:03:43.094Z,89.90
2017-08-25T03:06:10.638Z,89.50
2017-08-25T03:08:38.152Z,89.00
2017-08-25T03:11:05.687Z,88.80
2017-08-25T03:13:33.190Z,88.80
2017-08-25T03:16:00.729Z,89.10
2017-08-25T03:18:28.278Z,89.30
2017-08-25T03:20:55.820Z,89.40
2017-08-25T03:23:23.332Z,89.60
2017-08-25T03:25:50.870Z,89.50
2017-08-25T03:28:18.381Z,89.80
2017-08-25T03:30:46.914Z,89.70
2017-08-25T03:33:14.440Z,89.30
2017-08-25T03:35:41.978Z,89.30
2017-08-25T03:38:09.506Z,89.40
2017-08-25T03:40:37.059Z,89.10
2017-08-25T03:43:04.590Z,89.20
2017-08-25T03:45:32.123Z,89.00
2017-08-25T03:47:59.641Z,89.00
2017-08-25T03:50:27.199Z,89.20
2017-08-25T03:52:54.762Z,89.60
2017-08-25T03:55:22.295Z,89.70
2017-08-25T03:57:49.809Z,89.30
2017-08-25T04:00:17.835Z,89.40
2017-08-25T04:02:45.334Z,90.50
2017-08-25T04:05:12.858Z,91.80
2017-08-25T04:07:40.392Z,91.30
2017-08-25T04:10:07.937Z,90.40
2017-08-25T04:12:35.466Z,90.30
2017-08-25T04:15:02.998Z,89.60
2017-08-25T04:17:30.496Z,89.50
2017-08-25T04:19:58.026Z,90.00
2017-08-25T04:22:25.546Z,91.30
2017-08-25T04:24:53.137Z,92.00
2017-08-25T04:27:20.667Z,92.10
2017-08-25T04:29:49.289Z,91.00
2017-08-25T04:32:16.831Z,90.70
2017-08-25T04:34:44.341Z,91.20
2017-08-25T04:37:11.887Z,91.10
2017-08-25T04:39:39.402Z,91.30
2017-08-25T04:42:06.966Z,91.50
2017-08-25T04:44:35.504Z,91.50
2017-08-25T04:47:03.035Z,91.30
2017-08-25T04:49:30.581Z,91.10
2017-08-25T04:51:58.106Z,91.00
2017-08-25T04:54:25.640Z,91.20
2017-08-25T04:56:53.230Z,91.20
2017-08-25T04:59:20.741Z,91.90
2017-08-25T05:01:48.329Z,92.40
2017-08-25T05:04:15.826Z,92.30
2017-08-25T05:06:43.391Z,92.10
2017-08-25T05:09:10.906Z,92.20
2017-08-25T05:11:38.459Z,92.30
2017-08-25T05:14:05.988Z,92.40
2017-08-25T05:16:33.533Z,92.40
2017-08-25T05:19:01.052Z,92.20
2017-08-25T05:21:28.599Z,92.40
2017-08-25T05:23:56.109Z,92.30
2017-08-25T05:26:23.667Z,92.20
2017-08-25T05:28:51.187Z,92.20
2017-08-25T05:31:19.585Z,92.20
2017-08-25T05:33:47.104Z,92.30
2017-08-25T05:36:16.038Z,92.10
2017-08-25T05:38:43.567Z,91.70
2017-08-25T05:41:11.117Z,91.40
2017-08-25T05:43:38.634Z,91.40
2017-08-25T05:46:06.153Z,91.10
2017-08-25T05:48:33.658Z,90.50
2017-08-25T05:51:01.195Z,90.30
2017-08-25T05:53:28.720Z,90.20
2017-08-25T05:55:56.283Z,89.50
2017-08-25T05:58:23.869Z,89.70
2017-08-25T06:00:51.482Z,89.30
2017-08-25T06:03:20.037Z,89.60
2017-08-25T06:05:47.580Z,89.60
2017-08-25T06:08:15.123Z,89.30
2017-08-25T06:10:42.638Z,89.50
2017-08-25T06:13:10.169Z,89.40
2017-08-25T06:15:37.692Z,89.30
2017-08-25T06:18:05.235Z,89.20
2017-08-25T06:20:32.761Z,88.50
2017-08-25T06:23:00.309Z,88.50
2017-08-25T06:25:27.876Z,88.90
2017-08-25T06:27:55.418Z,89.20
2017-08-25T06:30:22.951Z,89.60
2017-08-25T06:32:50.483Z,89.80
2017-08-25T06:35:19.367Z,89.50
2017-08-25T06:37:46.931Z,89.50
2017-08-25T06:40:14.514Z,89.20
2017-08-25T06:42:42.035Z,88.80
2017-08-25T06:45:09.597Z,87.00
2017-08-25T06:47:37.138Z,87.20
2017-08-25T06:50:04.723Z,87.20
2017-08-25T06:52:32.281Z,87.50
2017-08-25T06:54:59.798Z,87.50
2017-08-25T06:57:27.339Z,87.00
2017-08-25T06:59:54.870Z,84.70
2017-08-25T07:02:22.482Z,84.50
2017-08-25T07:04:50.013Z,84.10
2017-08-25T07:07:18.109Z,83.50
2017-08-25T07:09:45.630Z,83.20
2017-08-25T07:12:13.178Z,82.90
2017-08-25T07:14:40.723Z,82.90
2017-08-25T07:17:08.269Z,83.00
2017-08-25T07:19:35.800Z,82.50
2017-08-25T07:22:03.338Z,81.50
2017-08-25T07:24:30.842Z,80.60
2017-08-25T07:26:58.377Z,80.00
2017-08-25T07:29:25.902Z,79.60
2017-08-25T07:31:53.451Z,79.20
2017-08-25T07:34:20.963Z,79.10
2017-08-25T07:36:48.483Z,78.70
2017-08-25T07:39:16.011Z,77.90
2017-08-25T07:41:43.568Z,77.50
2017-08-25T07:44:11.109Z,77.00
2017-08-25T07:46:38.626Z,77.40
2017-08-25T07:49:06.167Z,78.10
2017-08-25T07:51:33.801Z,77.10
2017-08-25T07:54:01.327Z,77.60
2017-08-25T07:56:28.831Z,76.90
2017-08-25T07:58:56.366Z,76.20
2017-08-25T08:01:24.851Z,77.10
2017-08-25T08:03:52.394Z,76.50
2017-08-25T08:06:20.219Z,76.20
2017-08-25T08:08:48.965Z,75.70
2017-08-25T08:11:16.473Z,76.20
2017-08-25T08:13:44.001Z,75.60
2017-08-25T08:16:11.591Z,74.70
2017-08-25T08:18:39.117Z,73.20
2017-08-25T08:21:06.635Z,73.70
2017-08-25T08:23:34.514Z,72.80
2017-08-25T08:26:02.026Z,71.70
2017-08-25T08:28:29.559Z,72.40
2017-08-25T08:30:57.089Z,74.20
2017-08-25T08:33:24.604Z,74.30
2017-08-25T08:35:52.111Z,73.40
2017-08-25T08:38:19.659Z,73.90
2017-08-25T08:40:47.167Z,72.80
2017-08-25T08:43:14.711Z,71.20
2017-08-25T08:45:42.283Z,71.40
2017-08-25T08:48:09.811Z,71.20
2017-08-25T08:50:37.335Z,68.50
2017-08-25T08:53:04.857Z,67.50
2017-08-25T08:55:32.367Z,67.50
2017-08-25T08:57:59.885Z,67.30
2017-08-25T09:00:27.397Z,68.00
2017-08-25T09:02:54.942Z,68.20
2017-08-25T09:05:28.300Z,68.40
2017-08-25T09:07:55.830Z,69.00
2017-08-25T09:10:23.379Z,69.60
2017-08-25T09:12:50.919Z,69.10
2017-08-25T09:15:18.520Z,69.50
2017-08-25T09:17:46.054Z,69.60
2017-08-25T09:20:13.581Z,69.40
2017-08-25T09:22:41.115Z,71.10
2017-08-25T09:25:08.641Z,70.70
2017-08-25T09:27:36.154Z,69.40
2017-08-25T09:30:03.675Z,70.10
2017-08-25T09:32:31.187Z,68.70
2017-08-25T09:34:58.713Z,69.30
2017-08-25T09:37:26.229Z,69.10
2017-08-25T09:39:53.765Z,66.40
2017-08-25T09:42:21.268Z,67.70
2017-08-25T09:44:49.784Z,66.40
2017-08-25T09:47:17.982Z,67.60
2017-08-25T09:49:45.519Z,66.30
2017-08-25T09:52:13.037Z,67.40
2017-08-25T09:54:40.558Z,65.50
2017-08-25T09:57:08.071Z,66.00
2017-08-25T09:59:35.592Z,66.60
2017-08-25T10:02:03.104Z,64.60
2017-08-25T10:04:30.635Z,65.90
2017-08-25T10:06:58.137Z,67.00
2017-08-25T10:09:25.653Z,65.40
2017-08-25T10:11:53.202Z,65.00
2017-08-25T10:14:20.728Z,64.30
2017-08-25T10:16:49.572Z,64.10
2017-08-25T10:19:17.094Z,63.50
2017-08-25T10:21:44.592Z,63.20
2017-08-25T10:24:12.125Z,63.50
2017-08-25T10:26:39.647Z,64.50
2017-08-25T10:29:07.207Z,64.20
2017-08-25T10:31:34.735Z,63.80
2017-08-25T10:34:14.275Z,61.00
2017-08-25T10:39:56.958Z,62.90
2017-08-25T10:55:54.016Z,61.90
2017-08-25T10:58:21.519Z,62.30
2017-08-25T11:00:50.381Z,61.90
2017-08-25T11:03:18.890Z,63.50
2017-08-25T11:05:46.431Z,61.50
2017-08-25T11:08:13.934Z,60.50
2017-08-25T11:10:41.466Z,60.80
2017-08-25T11:13:08.974Z,62.00
2017-08-25T11:15:36.493Z,63.10
2017-08-25T11:18:04.463Z,62.90
2017-08-25T11:20:32.003Z,63.00
2017-08-25T11:22:59.509Z,61.60
2017-08-25T11:25:27.046Z,63.30
2017-08-25T11:27:54.557Z,62.60
2017-08-25T11:30:22.109Z,62.50
2017-08-25T11:32:49.621Z,62.50
2017-08-25T11:35:17.171Z,63.80
2017-08-25T11:37:44.693Z,63.10
2017-08-25T11:40:12.233Z,62.50
2017-08-25T11:42:39.747Z,63.00
2017-08-25T11:45:07.280Z,62.80
2017-08-25T11:47:34.802Z,60.80
2017-08-25T11:50:02.325Z,62.10
2017-08-25T11:52:29.841Z,62.50
2017-08-25T11:54:57.378Z,61.80
2017-08-25T11:57:24.896Z,62.50
2017-08-25T11:59:52.806Z,62.80
2017-08-25T12:02:20.323Z,62.80
2017-08-25T12:04:48.799Z,62.00
2017-08-25T12:07:16.301Z,61.50
2017-08-25T12:09:43.859Z,60.50
2017-08-25T12:12:11.372Z,61.20
2017-08-25T12:14:38.908Z,59.60
2017-08-25T12:17:06.415Z,61.30
2017-08-25T12:19:33.949Z,62.50
2017-08-25T12:22:01.487Z,62.70
2017-08-25T12:24:28.993Z,62.50
2017-08-25T12:26:56.545Z,62.80
2017-08-25T12:29:24.061Z,63.50
2017-08-25T12:31:51.590Z,64.30
2017-08-25T12:34:20.435Z,63.20
2017-08-25T12:36:49.013Z,64.20
2017-08-25T12:39:16.526Z,62.90
2017-08-25T12:41:44.058Z,63.40
2017-08-25T12:44:11.564Z,63.40
2017-08-25T12:46:39.112Z,64.20
2017-08-25T12:49:06.631Z,64.70
2017-08-25T12:51:34.178Z,63.60
2017-08-25T12:54:01.710Z,63.60
2017-08-25T12:56:29.228Z,62.70
2017-08-25T12:58:56.726Z,62.50
2017-08-25T13:01:24.257Z,63.30
2017-08-25T13:03:51.780Z,63.50
2017-08-25T13:06:20.386Z,62.90
2017-08-25T13:08:48.919Z,64.70
2017-08-25T13:11:16.455Z,63.10
2017-08-25T13:13:43.989Z,63.80
2017-08-25T13:16:11.515Z,64.80
2017-08-25T13:18:39.014Z,64.00
2017-08-25T13:21:06.533Z,62.80
2017-08-25T13:23:34.059Z,63.60
2017-08-25T13:26:01.582Z,62.60
2017-08-25T13:28:29.108Z,63.50
2017-08-25T13:30:56.636Z,63.10
2017-08-25T13:33:24.145Z,62.10
2017-08-25T13:35:51.677Z,62.10
2017-08-25T13:38:19.718Z,64.20
2017-08-25T13:40:47.262Z,64.10
2017-08-25T13:43:14.768Z,64.60
2017-08-25T13:45:42.308Z,63.90
2017-08-25T13:48:09.810Z,64.30
2017-08-25T13:50:37.347Z,64.90
2017-08-25T13:53:04.857Z,65.00
2017-08-25T13:55:32.401Z,64.80
2017-08-25T13:57:59.921Z,64.20
2017-08-25T14:00:27.461Z,65.30
2017-08-25T14:02:54.982Z,64.80
2017-08-25T14:05:22.515Z,65.90
2017-08-25T14:07:50.038Z,65.10
2017-08-25T14:10:18.455Z,65.10
2017-08-25T14:12:45.989Z,63.90
2017-08-25T14:15:13.500Z,64.60
2017-08-25T14:17:41.032Z,66.20
2017-08-25T14:20:08.547Z,66.00
2017-08-25T14:22:36.111Z,66.90
2017-08-25T14:25:03.620Z,64.30
2017-08-25T14:27:31.148Z,65.30
2017-08-25T14:29:58.647Z,66.30
2017-08-25T14:32:26.180Z,64.60
2017-08-25T14:34:53.682Z,63.30
2017-08-25T14:37:21.206Z,64.40
2017-08-25T14:39:48.721Z,63.60
2017-08-25T14:42:16.251Z,64.60
2017-08-25T14:44:43.750Z,64.90
2017-08-25T14:47:11.279Z,65.00
2017-08-25T14:49:38.788Z,64.60
2017-08-25T14:52:06.313Z,64.40
2017-08-25T14:54:33.808Z,64.20
2017-08-25T14:57:05.048Z,64.20
2017-08-25T14:59:32.568Z,63.80
2017-08-25T15:02:00.108Z,64.70
2017-08-25T15:04:27.684Z,65.90
2017-08-25T15:06:55.221Z,65.20
2017-08-25T15:09:22.775Z,66.00
2017-08-25T15:11:50.314Z,65.70
2017-08-25T15:14:18.237Z,65.50
2017-08-25T15:16:45.761Z,65.50
2017-08-25T15:19:13.271Z,66.60
2017-08-25T15:21:40.814Z,67.00
2017-08-25T15:24:08.329Z,67.30
2017-08-25T15:26:35.855Z,67.60
2017-08-25T15:29:03.375Z,67.80
2017-08-25T15:31:30.910Z,68.10
2017-08-25T15:33:58.412Z,68.10
2017-08-25T15:36:25.911Z,67.60
2017-08-25T15:38:53.433Z,67.50
2017-08-25T15:41:20.939Z,67.00
2017-08-25T15:43:49.347Z,67.00
2017-08-25T15:46:16.857Z,67.80
2017-08-25T15:48:44.378Z,68.00
2017-08-25T15:51:11.878Z,69.70
2017-08-25T15:53:39.408Z,70.30
2017-08-25T15:56:06.919Z,71.20
2017-08-25T15:58:34.447Z,71.30
2017-08-25T16:01:01.959Z,70.10
2017-08-25T16:03:29.505Z,70.40
2017-08-25T16:05:57.028Z,70.60
2017-08-25T16:08:24.582Z,71.70
2017-08-25T16:10:52.114Z,72.60
2017-08-25T16:13:20.348Z,72.00
2017-08-25T16:15:49.070Z,71.30
2017-08-25T16:18:17.066Z,72.10
2017-08-25T16:20:44.670Z,72.10
2017-08-25T16:23:12.269Z,71.50
2017-08-25T16:25:39.903Z,72.00
2017-08-25T16:28:07.524Z,72.10
2017-08-25T16:30:35.148Z,72.30
2017-08-25T16:33:02.752Z,71.70
2017-08-25T16:35:30.572Z,71.80
2017-08-25T16:37:58.331Z,71.70
2017-08-25T16:40:25.937Z,71.70
2017-08-25T16:42:53.503Z,72.20
2017-08-25T16:45:21.113Z,72.50
2017-08-25T16:47:49.736Z,72.30
2017-08-25T16:50:17.290Z,72.20
2017-08-25T16:52:44.880Z,72.10
2017-08-25T16:55:12.436Z,72.00
2017-08-25T16:57:40.015Z,72.50
2017-08-25T17:00:07.644Z,72.30
2017-08-25T17:02:35.267Z,72.90
2017-08-25T17:05:03.660Z,73.00
2017-08-25T17:07:31.311Z,73.90
2017-08-25T17:09:58.910Z,73.70
2017-08-25T17:12:26.503Z,73.90
2017-08-25T17:14:54.989Z,74.20
2017-08-25T17:17:22.947Z,74.10
2017-08-25T17:19:56.166Z,73.70
2017-08-25T17:22:25.559Z,73.90
2017-08-25T17:24:56.115Z,73.90
2017-08-25T17:27:34.867Z,74.30
2017-08-25T17:30:02.407Z,74.10
2017-08-25T17:32:29.925Z,74.50
2017-08-25T17:34:57.441Z,74.20
2017-08-25T17:37:25.057Z,74.10
2017-08-25T17:39:52.597Z,74.20
2017-08-25T17:42:20.115Z,74.30
2017-08-25T17:44:51.046Z,74.40
2017-08-25T17:47:20.455Z,74.70
2017-08-25T17:49:48.632Z,75.30
2017-08-25T17:52:16.199Z,75.00
2017-08-25T17:54:43.755Z,74.70
2017-08-25T17:57:11.310Z,74.70
2017-08-25T17:59:38.914Z,75.20
2017-08-25T18:02:06.442Z,75.40
2017-08-25T18:04:34.003Z,74.40
2017-08-25T18:07:01.555Z,74.90
2017-08-25T18:09:29.135Z,74.90
2017-08-25T18:11:56.697Z,74.80
2017-08-25T18:14:24.265Z,76.70
2017-08-25T18:16:51.793Z,76.90
2017-08-25T18:19:20.232Z,77.00
2017-08-25T18:21:48.463Z,77.00
2017-08-25T18:24:16.008Z,77.50
2017-08-25T18:26:43.531Z,77.70
2017-08-25T18:29:11.264Z,78.50
2017-08-25T18:31:38.779Z,79.10
2017-08-25T18:34:06.310Z,79.40
2017-08-25T18:36:33.813Z,79.70
2017-08-25T18:39:01.337Z,80.10
2017-08-25T18:41:28.839Z,80.10
2017-08-25T18:43:56.422Z,80.40
2017-08-25T18:46:23.943Z,80.30
2017-08-25T18:48:51.509Z,80.20
2017-08-25T18:51:19.578Z,80.30
2017-08-25T18:53:47.105Z,80.40
2017-08-25T18:56:14.611Z,80.40
2017-08-25T18:58:42.154Z,80.30
2017-08-25T19:01:09.653Z,80.40
2017-08-25T19:03:37.191Z,80.40
2017-08-25T19:06:04.691Z,80.40
2017-08-25T19:08:32.264Z,81.10
2017-08-25T19:10:59.809Z,81.20
2017-08-25T19:13:27.332Z,81.40
2017-08-25T19:15:54.865Z,81.50
2017-08-25T19:18:22.502Z,81.90
2017-08-25T19:20:50.397Z,81.90
2017-08-25T19:23:18.347Z,82.00
2017-08-25T19:25:45.881Z,82.00
2017-08-25T19:28:13.427Z,82.10
2017-08-25T19:30:41.007Z,82.30
2017-08-25T19:33:08.567Z,82.50
2017-08-25T19:35:36.122Z,82.60
2017-08-25T19:38:03.637Z,82.70
2017-08-25T19:40:31.167Z,82.80
2017-08-25T19:42:58.708Z,82.70
2017-08-25T19:45:26.259Z,82.90
2017-08-25T19:47:53.781Z,82.70
2017-08-25T19:50:21.331Z,82.90
2017-08-25T19:52:48.855Z,83.10
2017-08-25T19:55:16.397Z,83.30
2017-08-25T19:57:43.911Z,83.40
2017-08-25T20:00:11.461Z,83.40
2017-08-25T20:02:39.000Z,83.60
2017-08-25T20:05:06.607Z,84.10
2017-08-25T20:07:34.211Z,84.40
2017-08-25T20:10:01.731Z,84.60
2017-08-25T20:12:29.241Z,84.60
2017-08-25T20:14:56.777Z,84.50
2017-08-25T20:17:24.291Z,84.70
2017-08-25T20:19:51.817Z,84.70
2017-08-25T20:22:20.166Z,84.90
2017-08-25T20:24:48.748Z,85.00
2017-08-25T20:27:16.277Z,85.10
2017-08-25T20:29:43.793Z,85.10
2017-08-25T20:32:11.306Z,85.10
2017-08-25T20:34:38.843Z,85.00
2017-08-25T20:37:06.363Z,85.10
2017-08-25T20:39:33.914Z,85.20
2017-08-25T20:42:01.422Z,85.30
2017-08-25T20:44:28.957Z,85.40
2017-08-25T20:46:56.474Z,85.50
2017-08-25T20:49:23.978Z,85.50
2017-08-25T20:51:51.528Z,85.50
2017-08-25T20:54:19.048Z,85.50
2017-08-25T20:56:46.590Z,85.80
2017-08-25T20:59:14.110Z,85.90
2017-08-25T21:01:41.649Z,86.00
2017-08-25T21:04:11.222Z,86.20
2017-08-25T21:06:38.745Z,86.40
2017-08-25T21:09:06.252Z,86.30
2017-08-25T21:11:33.848Z,86.10
2017-08-25T21:14:01.368Z,86.20
2017-08-25T21:16:28.905Z,86.30
2017-08-25T21:18:56.409Z,86.50
2017-08-25T21:21:23.954Z,86.40
2017-08-25T21:23:51.479Z,86.30
2017-08-25T21:26:19.016Z,86.30
2017-08-25T21:28:46.588Z,86.30
2017-08-25T21:31:14.299Z,86.20
2017-08-25T21:33:43.411Z,86.20
2017-08-25T21:36:10.955Z,86.30
2017-08-25T21:38:38.458Z,86.40
2017-08-25T21:41:05.991Z,86.40
2017-08-25T21:43:33.495Z,86.30
2017-08-25T21:46:01.363Z,86.20
2017-08-25T21:48:28.918Z,86.10
2017-08-25T21:50:56.449Z,85.90
2017-08-25T21:53:23.957Z,85.90
2017-08-25T21:55:51.480Z,85.90
2017-08-25T21:58:18.991Z,85.70
2017-08-25T22:00:46.528Z,85.80
2017-08-25T22:03:14.080Z,85.90
2017-08-25T22:05:41.608Z,85.90
2017-08-25T22:08:09.131Z,86.10
2017-08-25T22:10:36.653Z,86.30
2017-08-25T22:13:04.151Z,86.80
2017-08-25T22:15:31.678Z,86.80
2017-08-25T22:17:59.185Z,87.10
2017-08-25T22:20:26.720Z,87.10
2017-08-25T22:22:54.228Z,87.70
2017-08-25T22:25:21.744Z,89.20
2017-08-25T22:27:50.547Z,89.80
2017-08-25T22:30:18.457Z,90.50
2017-08-25T22:32:45.987Z,91.10
2017-08-25T22:35:13.485Z,91.20
2017-08-25T22:37:41.039Z,91.70
2017-08-25T22:40:08.556Z,92.50
2017-08-25T22:42:36.102Z,92.30
2017-08-25T22:45:03.647Z,92.40
2017-08-25T22:47:31.194Z,92.70
2017-08-25T22:49:58.731Z,93.20
2017-08-25T22:52:26.263Z,93.10
2017-08-25T22:54:53.870Z,93.20
2017-08-25T22:57:21.410Z,93.50
2017-08-25T22:59:48.937Z,93.40
2017-08-25T23:02:16.482Z,94.00
2017-08-25T23:04:46.074Z,94.40
2017-08-25T23:07:13.632Z,93.80
2017-08-25T23:09:41.155Z,93.70
2017-08-25T23:12:08.709Z,94.00
2017-08-25T23:14:36.228Z,93.70
2017-08-25T23:17:03.793Z,94.00
2017-08-25T23:19:31.317Z,94.10
2017-08-25T23:21:58.853Z,93.80
2017-08-25T23:24:26.443Z,93.80
2017-08-25T23:26:53.986Z,94.20
2017-08-25T23:29:21.518Z,94.00
2017-08-25T23:31:49.058Z,94.40
2017-08-25T23:34:16.581Z,93.90
2017-08-25T23:36:44.128Z,94.10
2017-08-25T23:39:11.644Z,94.00
2017-08-25T23:41:39.198Z,94.20
2017-08-25T23:44:06.709Z,94.40
2017-08-25T23:46:34.250Z,94.50
2017-08-25T23:49:01.768Z,94.60
2017-08-25T23:51:29.302Z,94.90
2017-08-25T23:53:56.831Z,95.10
2017-08-25T23:56:24.388Z,95.40
2017-08-25T23:58:51.916Z,95.00
